Time;durP1;ratioP1;P1;durP2;ratioP2;P2;SDS_P1;SDS_P2;PMS_P1;PMS_P2;Temp;Humidity;BMP_temperature;BMP_pressure;BME280_temperature;BME280_humidity;BME280_pressure;Samples;Min_cycle;Max_cycle;Signal;HPM_P1;HPM_P2
2022/04/02 00:00:17;;;;;;;8.10;7.50;;;;;;;;;;5075794;28;20449;-74
2022/04/02 00:02:44;;;;;;;9.20;8.50;;;;;;;;;;5075493;28;20468;-73
2022/04/02 00:05:10;;;;;;;8.80;8.20;;;;;;;;;;5075998;28;20432;-74
2022/04/02 00:07:37;;;;;;;9.50;8.77;;;;;;;;;;5075845;28;20418;-74
2022/04/02 00:10:05;;;;;;;10.17;9.47;;;;;;;;;;5075878;28;20414;-73
2022/04/02 00:12:31;;;;;;;8.23;7.43;;;;;;;;;;5075739;28;20472;-73
2022/04/02 00:14:57;;;;;;;11.23;9.97;;;;;;;;;;5075818;28;20414;-73
2022/04/02 00:17:23;;;;;;;9.27;8.47;;;;;;;;;;5075685;28;20422;-74
2022/04/02 00:19:49;;;;;;;9.43;8.67;;;;;;;;;;5075589;28;20505;-73
2022/04/02 00:22:16;;;;;;;9.57;8.77;;;;;;;;;;5075595;28;20526;-74
2022/04/02 00:24:43;;;;;;;9.13;8.33;;;;;;;;;;5075490;28;20409;-74
2022/04/02 00:27:09;;;;;;;10.10;9.20;;;;;;;;;;5075255;28;20517;-73
2022/04/02 00:29:38;;;;;;;9.17;8.40;;;;;;;;;;5075338;28;20428;-74
2022/04/02 00:32:04;;;;;;;8.97;8.37;;;;;;;;;;5075129;28;20469;-76
2022/04/02 00:34:30;;;;;;;9.20;8.50;;;;;;;;;;5075070;28;20727;-74
2022/04/02 00:36:56;;;;;;;9.17;8.50;;;;;;;;;;5075299;28;20421;-74
2022/04/02 00:39:22;;;;;;;8.20;7.53;;;;;;;;;;5075365;28;20909;-74
2022/04/02 00:41:48;;;;;;;9.23;8.60;;;;;;;;;;5075248;28;20861;-74
2022/04/02 00:44:17;;;;;;;12.30;11.17;;;;;;;;;;5075146;28;20417;-74
2022/04/02 00:46:43;;;;;;;8.87;8.23;;;;;;;;;;5075178;28;20429;-74
2022/04/02 00:49:11;;;;;;;8.93;8.33;;;;;;;;;;5075063;28;20414;-73
2022/04/02 00:51:41;;;;;;;9.70;8.97;;;;;;;;;;5074812;28;20954;-73
2022/04/02 00:54:08;;;;;;;10.27;9.47;;;;;;;;;;5075037;28;20444;-73
2022/04/02 00:56:35;;;;;;;9.50;8.80;;;;;;;;;;5074732;28;20449;-73
2022/04/02 00:59:01;;;;;;;10.60;9.70;;;;;;;;;;5074877;28;20429;-73
2022/04/02 01:01:27;;;;;;;8.37;7.77;;;;;;;;;;5075180;28;20953;-73
2022/04/02 01:03:53;;;;;;;9.33;8.63;;;;;;;;;;5073139;28;20794;-74
2022/04/02 01:06:19;;;;;;;8.57;8.07;;;;;;;;;;5075012;28;20402;-73
2022/04/02 01:08:46;;;;;;;8.60;8.10;;;;;;;;;;5074381;28;20460;-73
2022/04/02 01:11:12;;;;;;;8.53;7.90;;;;;;;;;;5074567;28;20451;-74
2022/04/02 01:13:38;;;;;;;9.00;8.20;;;;;;;;;;5074522;28;20556;-73
2022/04/02 01:16:05;;;;;;;9.00;8.40;;;;;;;;;;5074543;28;20417;-74
2022/04/02 01:18:31;;;;;;;9.30;8.60;;;;;;;;;;5074220;28;20402;-74
2022/04/02 01:20:58;;;;;;;8.27;7.67;;;;;;;;;;5074112;28;20760;-73
2022/04/02 01:23:29;;;;;;;8.77;7.97;;;;;;;;;;5074161;28;20486;-73
2022/04/02 01:25:56;;;;;;;8.47;7.87;;;;;;;;;;5074424;28;20482;-73
2022/04/02 01:28:23;;;;;;;8.10;7.53;;;;;;;;;;5056147;28;20425;-73
2022/04/02 01:30:49;;;;;;;12.33;7.57;;;;;;;;;;5073836;28;20465;-73
2022/04/02 01:33:15;;;;;;;7.33;6.93;;;;;;;;;;5074498;28;20422;-74
2022/04/02 01:35:41;;;;;;;7.63;7.23;;;;;;;;;;5074153;28;20413;-74
2022/04/02 01:38:07;;;;;;;7.30;6.80;;;;;;;;;;5074386;28;20424;-74
2022/04/02 01:40:33;;;;;;;8.17;7.40;;;;;;;;;;5074390;28;20422;-74
2022/04/02 01:42:59;;;;;;;11.97;7.23;;;;;;;;;;5074030;28;20618;-73
2022/04/02 01:45:25;;;;;;;7.10;6.30;;;;;;;;;;5073653;28;20923;-74
2022/04/02 01:47:53;;;;;;;7.10;6.70;;;;;;;;;;5073716;28;20451;-74
2022/04/02 01:50:19;;;;;;;7.33;6.70;;;;;;;;;;5073664;28;20986;-74
2022/04/02 01:52:45;;;;;;;7.57;6.97;;;;;;;;;;5074133;28;20440;-74
2022/04/02 01:55:11;;;;;;;7.10;6.70;;;;;;;;;;5073803;28;20913;-74
2022/04/02 01:57:37;;;;;;;7.20;6.70;;;;;;;;;;5073766;28;20417;-73
2022/04/02 02:00:05;;;;;;;7.90;6.93;;;;;;;;;;5074078;28;20418;-74
2022/04/02 02:02:31;;;;;;;7.07;6.37;;;;;;;;;;5073578;28;20488;-74
2022/04/02 02:04:57;;;;;;;7.03;6.50;;;;;;;;;;5073630;28;20406;-74
2022/04/02 02:07:23;;;;;;;6.90;6.50;;;;;;;;;;5073392;28;20421;-73
2022/04/02 02:09:49;;;;;;;6.80;6.40;;;;;;;;;;5073574;28;20413;-74
2022/04/02 02:12:15;;;;;;;7.03;6.60;;;;;;;;;;5074129;28;20425;-74
2022/04/02 02:14:41;;;;;;;5.73;5.50;;;;;;;;;;5073198;28;20466;-73
2022/04/02 02:17:07;;;;;;;5.53;5.33;;;;;;;;;;5073749;28;20914;-74
2022/04/02 02:19:33;;;;;;;6.77;6.40;;;;;;;;;;5073481;28;20405;-74
2022/04/02 02:21:59;;;;;;;6.40;6.00;;;;;;;;;;5073148;28;20460;-74
2022/04/02 02:24:25;;;;;;;5.80;5.40;;;;;;;;;;5073678;28;20920;-74
2022/04/02 02:26:51;;;;;;;5.97;5.63;;;;;;;;;;5073720;28;20406;-73
2022/04/02 02:29:17;;;;;;;6.10;5.80;;;;;;;;;;5073364;28;20850;-74
2022/04/02 02:31:43;;;;;;;6.00;5.53;;;;;;;;;;5072923;28;20560;-74
2022/04/02 02:36:54;;;;;;;4.93;4.73;;;;;;;;;;5073292;28;20440;-73
2022/04/02 02:39:20;;;;;;;4.10;4.00;;;;;;;;;;5073097;28;20406;-73
2022/04/02 02:41:46;;;;;;;3.13;3.03;;;;;;;;;;5073482;28;20505;-74
2022/04/02 02:44:11;;;;;;;4.63;4.53;;;;;;;;;;5072917;28;20492;-74
2022/04/02 02:46:37;;;;;;;4.80;4.60;;;;;;;;;;5073144;28;20417;-74
2022/04/02 02:49:03;;;;;;;5.53;5.23;;;;;;;;;;5072861;28;20416;-74
2022/04/02 02:51:29;;;;;;;4.80;4.60;;;;;;;;;;5072839;28;20773;-74
2022/04/02 02:53:55;;;;;;;4.57;4.47;;;;;;;;;;5072872;28;20413;-74
2022/04/02 02:56:21;;;;;;;5.60;5.37;;;;;;;;;;5071748;28;20398;-73
2022/04/02 02:58:47;;;;;;;4.67;4.43;;;;;;;;;;5072853;28;20890;-73
2022/04/02 03:01:13;;;;;;;4.40;4.20;;;;;;;;;;5054642;28;20464;-74
2022/04/02 03:03:39;;;;;;;3.57;3.50;;;;;;;;;;5072758;28;20429;-73
2022/04/02 03:06:05;;;;;;;3.53;3.43;;;;;;;;;;5072715;28;20432;-74
2022/04/02 03:08:31;;;;;;;4.30;4.10;;;;;;;;;;5073238;28;20449;-74
2022/04/02 03:10:58;;;;;;;4.03;3.83;;;;;;;;;;5073042;28;20505;-74
2022/04/02 03:13:24;;;;;;;3.63;3.53;;;;;;;;;;5072675;28;20421;-74
2022/04/02 03:15:51;;;;;;;3.50;3.40;;;;;;;;;;5073143;28;20424;-73
2022/04/02 03:18:17;;;;;;;3.70;3.47;;;;;;;;;;5072651;28;20467;-73
2022/04/02 03:20:43;;;;;;;3.20;3.20;;;;;;;;;;5072893;28;20410;-73
2022/04/02 03:23:09;;;;;;;9.57;3.80;;;;;;;;;;5072780;28;20871;-74
2022/04/02 03:25:36;;;;;;;3.60;3.30;;;;;;;;;;5072886;28;20460;-73
2022/04/02 03:28:03;;;;;;;2.90;2.90;;;;;;;;;;5076039;28;20421;-74
2022/04/02 03:30:30;;;;;;;2.90;2.83;;;;;;;;;;5076617;28;20405;-76
2022/04/02 03:32:56;;;;;;;3.00;3.00;;;;;;;;;;5076219;28;20422;-74
2022/04/02 03:35:22;;;;;;;3.27;3.07;;;;;;;;;;5076250;28;20456;-74
2022/04/02 03:37:49;;;;;;;2.63;2.63;;;;;;;;;;5076447;28;20777;-73
2022/04/02 03:40:17;;;;;;;3.00;2.90;;;;;;;;;;5076430;28;20540;-74
2022/04/02 03:42:46;;;;;;;2.57;2.57;;;;;;;;;;5076457;28;20473;-74
2022/04/02 03:45:16;;;;;;;2.67;2.67;;;;;;;;;;5076085;28;20420;-74
2022/04/02 03:47:43;;;;;;;2.67;2.67;;;;;;;;;;5076228;28;20424;-74
2022/04/02 03:50:09;;;;;;;2.83;2.83;;;;;;;;;;5076523;28;20413;-74
2022/04/02 03:52:35;;;;;;;3.30;3.30;;;;;;;;;;5075862;28;20913;-74
2022/04/02 03:55:01;;;;;;;2.80;2.70;;;;;;;;;;5075924;28;20496;-74
2022/04/02 03:57:27;;;;;;;2.93;2.83;;;;;;;;;;5075863;28;20418;-74
2022/04/02 03:59:53;;;;;;;3.00;2.63;;;;;;;;;;5076086;28;20478;-74
2022/04/02 04:02:21;;;;;;;2.73;2.57;;;;;;;;;;5076229;28;20480;-74
2022/04/02 04:04:47;;;;;;;2.90;2.90;;;;;;;;;;5075945;28;20412;-73
2022/04/02 04:07:14;;;;;;;2.30;2.30;;;;;;;;;;5075642;28;20414;-74
2022/04/02 04:09:42;;;;;;;2.77;2.67;;;;;;;;;;5057716;28;20433;-74
2022/04/02 04:12:10;;;;;;;2.87;2.83;;;;;;;;;;5075939;28;20424;-74
2022/04/02 04:14:36;;;;;;;3.13;2.93;;;;;;;;;;5075526;28;20413;-74
2022/04/02 04:17:02;;;;;;;2.90;2.67;;;;;;;;;;5075934;28;20417;-73
2022/04/02 04:19:28;;;;;;;2.83;2.53;;;;;;;;;;5075471;28;20492;-74
2022/04/02 04:21:55;;;;;;;2.80;2.73;;;;;;;;;;5075408;28;20454;-73
2022/04/02 04:24:22;;;;;;;2.73;2.70;;;;;;;;;;5075566;28;20422;-74
2022/04/02 04:26:48;;;;;;;2.73;2.73;;;;;;;;;;5075485;28;20416;-74
2022/04/02 04:29:13;;;;;;;3.10;3.00;;;;;;;;;;5075166;28;20414;-73
2022/04/02 04:31:39;;;;;;;3.40;3.30;;;;;;;;;;5074851;28;20534;-74
2022/04/02 04:34:06;;;;;;;2.90;2.90;;;;;;;;;;5075116;28;20457;-74
2022/04/02 04:36:32;;;;;;;2.93;2.90;;;;;;;;;;5075106;28;20416;-74
2022/04/02 04:38:58;;;;;;;2.97;2.87;;;;;;;;;;5074881;28;20410;-74
2022/04/02 04:41:24;;;;;;;3.20;3.20;;;;;;;;;;5075007;28;20465;-73
2022/04/02 04:43:50;;;;;;;3.63;3.50;;;;;;;;;;5075025;28;20504;-74
2022/04/02 04:46:17;;;;;;;2.60;2.50;;;;;;;;;;5075202;28;20977;-73
2022/04/02 04:48:44;;;;;;;3.33;3.23;;;;;;;;;;5074867;28;20498;-74
2022/04/02 04:51:11;;;;;;;3.37;3.07;;;;;;;;;;5074893;28;20505;-74
2022/04/02 04:53:37;;;;;;;2.90;2.80;;;;;;;;;;5075043;28;20505;-74
2022/04/02 04:56:03;;;;;;;3.00;2.90;;;;;;;;;;5075512;28;20890;-74
2022/04/02 04:58:29;;;;;;;3.37;3.27;;;;;;;;;;5075189;28;20834;-74
2022/04/02 05:00:56;;;;;;;7.20;2.80;;;;;;;;;;5074589;28;20449;-74
2022/04/02 05:03:22;;;;;;;2.90;2.90;;;;;;;;;;5074624;28;20436;-74
2022/04/02 05:05:49;;;;;;;3.03;2.93;;;;;;;;;;5074511;28;20406;-73
2022/04/02 05:08:15;;;;;;;3.30;3.10;;;;;;;;;;5074788;28;20422;-73
2022/04/02 05:10:41;;;;;;;3.07;3.00;;;;;;;;;;5074502;28;20405;-73
2022/04/02 05:13:13;;;;;;;2.67;2.67;;;;;;;;;;5074320;28;20984;-73
2022/04/02 05:15:40;;;;;;;2.90;2.70;;;;;;;;;;5074234;28;20420;-73
2022/04/02 05:18:06;;;;;;;2.80;2.67;;;;;;;;;;5074500;28;20448;-73
2022/04/02 05:20:34;;;;;;;3.40;3.30;;;;;;;;;;5074463;28;20894;-73
2022/04/02 05:23:00;;;;;;;2.97;2.87;;;;;;;;;;5074395;28;20491;-74
2022/04/02 05:25:26;;;;;;;3.30;3.20;;;;;;;;;;5074128;28;20819;-73
2022/04/02 05:27:54;;;;;;;2.80;2.80;;;;;;;;;;5074528;28;20500;-73
2022/04/02 05:30:20;;;;;;;3.57;3.40;;;;;;;;;;5073839;28;20798;-74
2022/04/02 05:32:46;;;;;;;4.57;4.17;;;;;;;;;;5074020;28;20532;-73
2022/04/02 05:35:12;;;;;;;3.10;3.00;;;;;;;;;;5073876;28;20508;-73
2022/04/02 05:37:45;;;;;;;2.87;2.77;;;;;;;;;;5073788;28;20429;-73
2022/04/02 05:40:12;;;;;;;2.23;2.23;;;;;;;;;;5055817;28;20928;-73
2022/04/02 05:42:37;;;;;;;2.67;2.67;;;;;;;;;;5073685;28;20469;-73
2022/04/02 05:45:05;;;;;;;2.87;2.47;;;;;;;;;;5073731;28;20842;-75
2022/04/02 05:47:41;;;;;;;2.60;2.50;;;;;;;;;;5073698;28;20928;-73
2022/04/02 05:50:09;;;;;;;2.93;2.83;;;;;;;;;;5073546;28;20398;-74
2022/04/02 05:52:34;;;;;;;2.37;2.37;;;;;;;;;;5074180;28;20525;-73
2022/04/02 05:55:00;;;;;;;3.10;3.10;;;;;;;;;;5073705;28;20414;-74
2022/04/02 05:57:26;;;;;;;2.77;2.67;;;;;;;;;;5073858;28;20418;-74
2022/04/02 05:59:52;;;;;;;2.10;2.10;;;;;;;;;;5073487;28;20414;-74
2022/04/02 06:02:18;;;;;;;2.27;2.27;;;;;;;;;;5073403;28;20473;-77
2022/04/02 06:04:44;;;;;;;2.53;2.43;;;;;;;;;;5073276;28;20452;-74
2022/04/02 06:07:11;;;;;;;4.90;2.80;;;;;;;;;;5073668;28;20417;-75
2022/04/02 06:09:37;;;;;;;2.33;2.33;;;;;;;;;;5073280;28;20439;-76
2022/04/02 06:12:03;;;;;;;2.20;2.20;;;;;;;;;;5073371;28;20513;-74
2022/04/02 06:14:29;;;;;;;2.97;2.97;;;;;;;;;;5073593;28;20765;-76
2022/04/02 06:16:55;;;;;;;1.57;1.57;;;;;;;;;;5073167;28;20432;-74
2022/04/02 06:19:21;;;;;;;2.23;2.23;;;;;;;;;;5073070;28;20513;-75
2022/04/02 06:21:47;;;;;;;2.90;2.70;;;;;;;;;;5073087;28;20467;-76
2022/04/02 06:24:13;;;;;;;2.40;2.40;;;;;;;;;;5073373;28;20425;-73
2022/04/02 06:26:39;;;;;;;2.57;2.57;;;;;;;;;;5073657;28;20933;-74
2022/04/02 06:29:05;;;;;;;2.70;2.50;;;;;;;;;;5073267;28;20499;-74
2022/04/02 06:31:30;;;;;;;2.23;2.20;;;;;;;;;;5072794;28;20471;-74
2022/04/02 06:33:56;;;;;;;2.50;2.40;;;;;;;;;;5072996;28;20418;-74
2022/04/02 06:36:22;;;;;;;2.10;2.10;;;;;;;;;;5072829;28;20425;-74
2022/04/02 06:38:49;;;;;;;2.70;2.60;;;;;;;;;;5073254;28;20452;-73
2022/04/02 06:41:15;;;;;;;1.90;1.90;;;;;;;;;;5073127;28;20414;-73
2022/04/02 06:43:41;;;;;;;3.23;2.10;;;;;;;;;;5073194;28;20429;-73
2022/04/02 06:46:07;;;;;;;3.80;2.10;;;;;;;;;;5073421;28;20409;-74
2022/04/02 06:48:33;;;;;;;4.13;3.00;;;;;;;;;;5073075;28;20567;-74
2022/04/02 06:50:59;;;;;;;2.60;2.50;;;;;;;;;;5073105;28;20475;-74
2022/04/02 06:53:25;;;;;;;2.53;2.17;;;;;;;;;;5072795;28;20878;-73
2022/04/02 06:55:51;;;;;;;3.20;2.30;;;;;;;;;;5073068;28;20498;-74
2022/04/02 06:58:31;;;;;;;2.20;2.20;;;;;;;;;;5073316;28;20881;-74
2022/04/02 07:00:57;;;;;;;2.57;2.37;;;;;;;;;;5074466;28;20422;-73
2022/04/02 07:03:23;;;;;;;1.97;1.97;;;;;;;;;;5076632;28;20426;-73
2022/04/02 07:05:49;;;;;;;1.77;1.77;;;;;;;;;;5076957;28;20424;-74
2022/04/02 07:08:15;;;;;;;2.10;2.10;;;;;;;;;;5076510;28;20897;-77
2022/04/02 07:10:41;;;;;;;2.00;2.00;;;;;;;;;;5058480;28;20436;-74
2022/04/02 07:13:07;;;;;;;2.30;2.30;;;;;;;;;;5076646;28;20467;-75
2022/04/02 07:15:33;;;;;;;1.97;1.97;;;;;;;;;;5058723;28;20836;-77
2022/04/02 07:18:10;;;;;;;2.03;2.03;;;;;;;;;;5077275;28;20414;-74
2022/04/02 07:20:36;;;;;;;1.93;1.83;;;;;;;;;;5076824;28;20432;-75
2022/04/02 07:23:03;;;;;;;1.60;1.60;;;;;;;;;;5076256;28;20499;-77
2022/04/02 07:25:29;;;;;;;1.63;1.60;;;;;;;;;;5077296;28;20734;-74
2022/04/02 07:27:56;;;;;;;1.47;1.47;;;;;;;;;;5076675;28;20422;-74
2022/04/02 07:30:22;;;;;;;1.47;1.47;;;;;;;;;;5058145;28;20921;-77
2022/04/02 07:32:48;;;;;;;1.20;1.20;;;;;;;;;;5076204;28;20440;-75
2022/04/02 07:35:14;;;;;;;1.73;1.73;;;;;;;;;;5076210;28;20512;-75
2022/04/02 07:37:58;;;;;;;1.93;1.93;;;;;;;;;;5076620;28;20549;-75
2022/04/02 07:40:26;;;;;;;1.80;1.80;;;;;;;;;;5076150;28;20424;-76
2022/04/02 07:43:05;;;;;;;2.50;2.50;;;;;;;;;;5075914;28;20475;-76
2022/04/02 07:45:40;;;;;;;1.90;1.90;;;;;;;;;;5075871;28;20958;-74
2022/04/02 07:48:09;;;;;;;2.30;2.30;;;;;;;;;;5076010;28;20801;-76
2022/04/02 07:50:36;;;;;;;4.10;3.90;;;;;;;;;;5075963;28;20413;-76
2022/04/02 07:53:05;;;;;;;2.60;2.40;;;;;;;;;;5075935;28;20409;-74
2022/04/02 07:55:32;;;;;;;2.20;1.70;;;;;;;;;;5076388;28;20410;-79
2022/04/02 07:58:00;;;;;;;1.83;1.83;;;;;;;;;;5076068;28;20423;-76
2022/04/02 08:00:28;;;;;;;1.67;1.67;;;;;;;;;;5076004;28;20417;-74
2022/04/02 08:02:54;;;;;;;2.20;2.20;;;;;;;;;;5075891;28;20512;-77
2022/04/02 08:05:21;;;;;;;1.70;1.70;;;;;;;;;;5075983;28;20405;-76
2022/04/02 08:07:52;;;;;;;1.83;1.83;;;;;;;;;;5075867;28;20425;-76
2022/04/02 08:10:19;;;;;;;1.63;1.63;;;;;;;;;;5075566;28;20398;-75
2022/04/02 08:12:45;;;;;;;2.43;2.33;;;;;;;;;;5056942;28;20810;-76
2022/04/02 08:15:12;;;;;;;1.77;1.67;;;;;;;;;;5075657;28;20414;-76
2022/04/02 08:17:39;;;;;;;1.60;1.60;;;;;;;;;;5075604;28;20588;-75
2022/04/02 08:20:05;;;;;;;1.40;1.30;;;;;;;;;;5075696;28;20490;-75
2022/04/02 08:22:31;;;;;;;1.80;1.80;;;;;;;;;;5075340;28;20469;-77
2022/04/02 08:24:58;;;;;;;1.40;1.40;;;;;;;;;;5074568;28;20422;-77
2022/04/02 08:27:45;;;;;;;1.80;1.77;;;;;;;;;;5075478;28;20509;-77
2022/04/02 08:30:11;;;;;;;3.07;2.13;;;;;;;;;;5075224;28;20742;-75
2022/04/02 08:32:53;;;;;;;2.33;1.50;;;;;;;;;;5075084;28;20867;-74
2022/04/02 08:35:24;;;;;;;1.60;1.60;;;;;;;;;;5075429;28;20428;-77
2022/04/02 08:37:56;;;;;;;2.37;1.97;;;;;;;;;;5075216;28;20531;-76
2022/04/02 08:40:22;;;;;;;1.80;1.80;;;;;;;;;;5075201;28;20393;-75
2022/04/02 08:43:06;;;;;;;1.60;1.60;;;;;;;;;;5075143;28;20984;-75
2022/04/02 08:45:34;;;;;;;1.40;1.40;;;;;;;;;;5075018;28;20420;-76
2022/04/02 08:48:06;;;;;;;1.33;1.33;;;;;;;;;;5074816;28;20910;-77
2022/04/02 08:50:34;;;;;;;1.67;1.67;;;;;;;;;;5074966;28;20430;-77
2022/04/02 08:56:05;;;;;;;1.47;1.37;;;;;;;;;;5074906;28;20397;-77
2022/04/02 08:58:50;;;;;;;1.47;1.47;;;;;;;;;;5074989;28;20422;-77
2022/04/02 09:01:22;;;;;;;1.53;1.53;;;;;;;;;;5074923;28;20418;-77
2022/04/02 09:03:48;;;;;;;1.63;1.53;;;;;;;;;;5074906;28;20406;-75
2022/04/02 09:06:14;;;;;;;3.70;3.50;;;;;;;;;;5074979;28;20441;-77
2022/04/02 09:08:58;;;;;;;1.20;1.20;;;;;;;;;;5074770;28;20424;-75
2022/04/02 09:11:25;;;;;;;1.60;1.60;;;;;;;;;;5074680;28;20414;-77
2022/04/02 09:14:04;;;;;;;2.47;2.20;;;;;;;;;;5074296;28;20479;-75
2022/04/02 09:16:37;;;;;;;1.40;1.40;;;;;;;;;;5074558;28;20417;-77
2022/04/02 09:19:29;;;;;;;2.43;2.33;;;;;;;;;;5074163;28;20428;-77
2022/04/02 09:21:57;;;;;;;2.10;2.10;;;;;;;;;;5074440;28;20450;-76
2022/04/02 09:24:41;;;;;;;1.63;1.63;;;;;;;;;;5073013;28;20418;-77
2022/04/02 09:27:19;;;;;;;2.13;1.90;;;;;;;;;;5074131;28;20417;-75
2022/04/02 09:29:48;;;;;;;5.33;2.10;;;;;;;;;;5073924;28;20416;-76
2022/04/02 09:32:32;;;;;;;2.40;2.40;;;;;;;;;;5073788;28;20468;-75
2022/04/02 09:35:26;;;;;;;1.93;1.90;;;;;;;;;;5055929;28;20458;-76
2022/04/02 09:38:04;;;;;;;2.23;2.03;;;;;;;;;;5073849;28;20444;-75
2022/04/02 09:40:34;;;;;;;1.63;1.63;;;;;;;;;;5073846;28;20468;-75
2022/04/02 09:46:06;;;;;;;1.80;1.80;;;;;;;;;;5073947;28;20614;-72
2022/04/02 09:48:39;;;;;;;2.80;2.60;;;;;;;;;;5073549;28;20424;-72
2022/04/02 09:51:07;;;;;;;2.07;2.07;;;;;;;;;;5073979;28;20440;-72
2022/04/02 09:53:40;;;;;;;1.50;1.50;;;;;;;;;;5074255;28;20410;-73
2022/04/02 09:56:06;;;;;;;1.63;1.63;;;;;;;;;;5073945;28;20424;-73
2022/04/02 09:58:38;;;;;;;4.05;3.85;;;;;;;;;;5072578;28;20405;-72
2022/04/02 10:01:05;;;;;;;1.37;1.37;;;;;;;;;;5073468;28;20187;-68
2022/04/02 10:03:37;;;;;;;1.60;1.50;;;;;;;;;;5073590;28;20440;-68
2022/04/02 10:06:22;;;;;;;1.60;1.50;;;;;;;;;;5073281;28;20410;-68
2022/04/02 10:08:58;;;;;;;2.13;2.13;;;;;;;;;;5073644;28;20810;-68
2022/04/02 10:11:28;;;;;;;2.43;2.27;;;;;;;;;;5073562;28;20402;-68
2022/04/02 10:13:56;;;;;;;2.33;2.33;;;;;;;;;;5073086;28;20429;-71
2022/04/02 10:16:23;;;;;;;2.27;2.07;;;;;;;;;;5073161;28;20824;-71
2022/04/02 10:18:52;;;;;;;2.10;2.00;;;;;;;;;;5073115;28;20433;-68
2022/04/02 10:21:19;;;;;;;1.70;1.70;;;;;;;;;;5073056;28;20459;-68
2022/04/02 10:23:51;;;;;;;1.53;1.53;;;;;;;;;;5072937;28;20428;-69
2022/04/02 10:26:18;;;;;;;2.10;2.00;;;;;;;;;;5073239;28;20405;-70
2022/04/02 10:28:49;;;;;;;1.93;1.93;;;;;;;;;;5073299;28;20422;-68
2022/04/02 10:31:35;;;;;;;2.20;2.13;;;;;;;;;;5072878;28;20465;-68
2022/04/02 10:34:28;;;;;;;3.37;3.27;;;;;;;;;;5038390;28;20418;-68
2022/04/02 10:36:56;;;;;;;1.80;1.80;;;;;;;;;;5067892;28;20438;-71
2022/04/02 10:39:24;;;;;;;1.17;1.17;;;;;;;;;;5055084;28;20176;-74
2022/04/02 10:41:54;;;;;;;2.03;1.90;;;;;;;;;;5072899;28;20460;-78
2022/04/02 10:44:39;;;;;;;1.97;1.87;;;;;;;;;;5073200;28;20417;-73
2022/04/02 10:47:06;;;;;;;2.00;1.90;;;;;;;;;;5072929;28;20428;-75
2022/04/02 10:49:34;;;;;;;1.90;1.90;;;;;;;;;;5072845;28;20999;-76
2022/04/02 10:52:01;;;;;;;2.13;2.13;;;;;;;;;;5073251;28;20412;-76
2022/04/02 10:54:28;;;;;;;1.87;1.87;;;;;;;;;;5054818;28;20518;-74
2022/04/02 10:56:57;;;;;;;1.57;1.57;;;;;;;;;;5073205;28;20413;-75
2022/04/02 10:59:30;;;;;;;2.77;2.00;;;;;;;;;;5072955;28;20418;-74
2022/04/02 11:01:59;;;;;;;1.90;1.90;;;;;;;;;;5054818;28;20518;-75
2022/04/02 11:04:30;;;;;;;1.63;1.63;;;;;;;;;;5072988;28;20445;-74
2022/04/02 11:06:57;;;;;;;1.97;1.87;;;;;;;;;;5072718;28;20433;-76
2022/04/02 11:09:29;;;;;;;2.73;2.63;;;;;;;;;;5072832;28;20414;-74
2022/04/02 11:12:00;;;;;;;1.80;1.70;;;;;;;;;;5072750;28;20414;-76
2022/04/02 11:14:26;;;;;;;1.70;1.70;;;;;;;;;;5072942;28;20456;-76
2022/04/02 11:16:52;;;;;;;2.37;2.27;;;;;;;;;;5072867;28;20418;-76
2022/04/02 11:22:09;;;;;;;3.20;2.90;;;;;;;;;;5072985;28;20552;-75
2022/04/02 11:24:41;;;;;;;1.97;1.97;;;;;;;;;;5072651;28;20424;-74
2022/04/02 11:27:11;;;;;;;2.73;1.83;;;;;;;;;;5072724;28;20406;-73
2022/04/02 11:29:39;;;;;;;1.93;1.93;;;;;;;;;;5072265;28;20432;-74
2022/04/02 11:32:07;;;;;;;2.50;2.30;;;;;;;;;;5072232;28;20469;-74
2022/04/02 11:34:35;;;;;;;2.53;2.43;;;;;;;;;;5072636;28;20414;-76
2022/04/02 11:37:03;;;;;;;1.70;1.63;;;;;;;;;;5072366;28;20912;-75
2022/04/02 11:39:41;;;;;;;3.93;2.03;;;;;;;;;;5072672;28;20416;-74
2022/04/02 11:42:08;;;;;;;2.00;1.90;;;;;;;;;;5072665;28;20487;-75
2022/04/02 11:44:36;;;;;;;3.17;2.23;;;;;;;;;;5072370;28;20421;-74
2022/04/02 11:47:02;;;;;;;2.50;2.40;;;;;;;;;;5072685;28;20402;-74
2022/04/02 11:49:29;;;;;;;2.13;1.97;;;;;;;;;;5076103;28;20500;-73
2022/04/02 11:52:03;;;;;;;2.50;2.50;;;;;;;;;;5076845;28;20885;-74
2022/04/02 11:54:29;;;;;;;2.60;2.50;;;;;;;;;;5076117;28;20401;-75
2022/04/02 11:57:09;;;;;;;2.20;2.10;;;;;;;;;;5076200;28;20501;-75
2022/04/02 11:59:35;;;;;;;1.90;1.90;;;;;;;;;;5075860;28;20463;-74
2022/04/02 12:02:02;;;;;;;2.50;2.40;;;;;;;;;;5075617;28;20891;-74
2022/04/02 12:04:28;;;;;;;2.20;2.20;;;;;;;;;;5075159;28;20417;-74
2022/04/02 12:07:03;;;;;;;2.00;1.90;;;;;;;;;;5075958;28;20418;-74
2022/04/02 12:09:29;;;;;;;1.90;1.90;;;;;;;;;;5075924;28;20401;-74
2022/04/02 12:11:58;;;;;;;2.83;2.40;;;;;;;;;;5075647;28;20520;-74
2022/04/02 12:14:27;;;;;;;2.47;2.47;;;;;;;;;;5076398;28;20426;-74
2022/04/02 12:17:01;;;;;;;2.60;2.50;;;;;;;;;;5075780;28;20464;-74
2022/04/02 12:19:53;;;;;;;1.90;1.90;;;;;;;;;;5075321;28;20428;-66
2022/04/02 12:22:26;;;;;;;2.30;2.30;;;;;;;;;;5071075;28;20505;-73
2022/04/02 12:24:53;;;;;;;2.33;2.23;;;;;;;;;;5057408;28;20464;-73
2022/04/02 12:27:20;;;;;;;2.30;2.30;;;;;;;;;;5075274;28;20471;-74
2022/04/02 12:29:47;;;;;;;1.30;1.30;;;;;;;;;;5057239;28;20418;-74
2022/04/02 12:32:13;;;;;;;2.13;2.13;;;;;;;;;;5075121;28;20469;-75
2022/04/02 12:34:40;;;;;;;2.20;2.20;;;;;;;;;;5075581;28;20778;-74
2022/04/02 12:37:06;;;;;;;2.00;2.00;;;;;;;;;;5075185;28;20409;-73
2022/04/02 12:39:32;;;;;;;1.80;1.80;;;;;;;;;;5075020;28;20420;-73
2022/04/02 12:41:58;;;;;;;2.43;2.43;;;;;;;;;;5075732;28;20548;-74
2022/04/02 12:44:24;;;;;;;2.20;2.10;;;;;;;;;;5074952;28;20510;-73
2022/04/02 12:46:51;;;;;;;2.00;1.90;;;;;;;;;;5075229;28;20445;-73
2022/04/02 12:49:33;;;;;;;1.90;1.80;;;;;;;;;;5074783;28;20422;-73
2022/04/02 12:52:09;;;;;;;2.37;2.27;;;;;;;;;;5075112;28;20429;-74
2022/04/02 12:54:36;;;;;;;4.57;4.27;;;;;;;;;;5074721;28;20421;-73
2022/04/02 12:57:12;;;;;;;8.13;7.30;;;;;;;;;;5074875;28;20416;-76
2022/04/02 12:59:42;;;;;;;2.53;2.50;;;;;;;;;;5056581;28;20429;-74
2022/04/02 13:02:09;;;;;;;2.07;2.07;;;;;;;;;;5074790;28;20457;-73
2022/04/02 13:04:36;;;;;;;2.90;2.10;;;;;;;;;;5074751;28;20541;-73
2022/04/02 13:07:04;;;;;;;2.30;2.20;;;;;;;;;;5074509;28;20920;-74
2022/04/02 13:09:33;;;;;;;43.70;2.17;;;;;;;;;;5074344;28;20932;-73
2022/04/02 13:15:09;;;;;;;1.70;1.60;;;;;;;;;;5074447;28;20474;-73
2022/04/02 13:20:35;;;;;;;1.70;1.70;;;;;;;;;;5074560;28;20899;-74
2022/04/02 13:23:02;;;;;;;1.60;1.50;;;;;;;;;;5074815;28;20560;-74
2022/04/02 13:25:31;;;;;;;1.97;1.87;;;;;;;;;;5074582;28;20881;-73
2022/04/02 13:28:16;;;;;;;2.00;2.00;;;;;;;;;;5074155;28;20459;-72
2022/04/02 13:30:43;;;;;;;2.00;1.87;;;;;;;;;;5074065;28;20453;-75
2022/04/02 13:33:12;;;;;;;3.13;2.17;;;;;;;;;;5074257;28;20414;-74
2022/04/02 13:35:49;;;;;;;2.57;2.57;;;;;;;;;;5073924;28;20405;-74
2022/04/02 13:38:39;;;;;;;1.60;1.53;;;;;;;;;;5073889;28;20780;-74
2022/04/02 13:41:05;;;;;;;1.63;1.60;;;;;;;;;;5074051;28;20394;-73
2022/04/02 13:43:35;;;;;;;2.03;2.03;;;;;;;;;;5073911;28;20477;-75
2022/04/02 13:46:08;;;;;;;1.70;1.70;;;;;;;;;;5074113;28;20517;-74
2022/04/02 13:48:47;;;;;;;1.70;1.70;;;;;;;;;;5073695;28;20413;-73
2022/04/02 13:51:14;;;;;;;2.13;2.03;;;;;;;;;;5073632;28;20777;-75
2022/04/02 13:53:42;;;;;;;2.73;2.63;;;;;;;;;;5073520;28;20516;-73
2022/04/02 13:56:15;;;;;;;1.70;1.60;;;;;;;;;;5073915;28;20413;-73
2022/04/02 13:58:45;;;;;;;2.27;2.27;;;;;;;;;;5073499;28;20901;-74
2022/04/02 14:01:16;;;;;;;2.13;2.13;;;;;;;;;;5074237;28;20432;-73
2022/04/02 14:03:46;;;;;;;2.20;2.17;;;;;;;;;;5073550;28;20531;-75
2022/04/02 14:06:14;;;;;;;2.17;2.17;;;;;;;;;;5073517;28;20437;-73
2022/04/02 14:08:40;;;;;;;1.90;1.80;;;;;;;;;;5073613;28;20409;-73
2022/04/02 14:11:14;;;;;;;2.53;2.43;;;;;;;;;;5072817;28;20819;-73
2022/04/02 14:13:44;;;;;;;2.10;2.10;;;;;;;;;;5073477;28;20406;-73
2022/04/02 14:16:12;;;;;;;1.87;1.87;;;;;;;;;;5074362;28;20814;-74
2022/04/02 14:18:43;;;;;;;2.50;2.50;;;;;;;;;;5073352;28;20631;-73
2022/04/02 14:21:12;;;;;;;2.43;2.33;;;;;;;;;;5073238;28;20413;-73
2022/04/02 14:23:44;;;;;;;2.87;2.67;;;;;;;;;;5073038;28;20500;-73
2022/04/02 14:26:16;;;;;;;2.40;2.30;;;;;;;;;;5072559;28;20449;-73
2022/04/02 14:28:45;;;;;;;2.30;2.23;;;;;;;;;;5072844;28;20666;-74
2022/04/02 14:31:30;;;;;;;2.37;2.37;;;;;;;;;;5072896;28;21050;-73
2022/04/02 14:34:14;;;;;;;2.83;2.73;;;;;;;;;;5054999;28;20414;-74
2022/04/02 14:36:49;;;;;;;3.10;3.00;;;;;;;;;;5073071;28;20894;-73
2022/04/02 14:39:34;;;;;;;4.40;4.10;;;;;;;;;;5073183;28;20413;-75
2022/04/02 14:42:06;;;;;;;3.13;2.33;;;;;;;;;;5073220;28;20492;-75
2022/04/02 14:44:48;;;;;;;2.40;2.30;;;;;;;;;;5073646;28;20464;-75
2022/04/02 14:47:29;;;;;;;2.07;2.07;;;;;;;;;;5073239;28;20414;-75
2022/04/02 14:50:25;;;;;;;2.37;2.37;;;;;;;;;;5073182;28;20409;-73
2022/04/02 14:53:21;;;;;;;2.40;2.40;;;;;;;;;;5072948;28;20914;-74
2022/04/02 14:56:05;;;;;;;2.60;2.50;;;;;;;;;;4984699;28;20421;-74
2022/04/02 14:58:32;;;;;;;2.17;2.13;;;;;;;;;;5072861;28;20401;-75
2022/04/02 15:00:58;;;;;;;2.50;2.40;;;;;;;;;;5073079;28;20447;-74
2022/04/02 15:03:43;;;;;;;2.20;2.10;;;;;;;;;;5073229;28;20952;-73
2022/04/02 15:06:10;;;;;;;2.23;2.23;;;;;;;;;;5072942;28;20492;-73
2022/04/02 15:08:54;;;;;;;2.37;2.37;;;;;;;;;;5073052;28;20425;-73
2022/04/02 15:11:20;;;;;;;2.50;2.50;;;;;;;;;;5072928;28;20539;-74